Petrolina de Goias, Brazil
Current Conditions -  °F | °C
As of 12:00 AM on Sunday 23 Nov 2014 (Local Time) from SBAN Reporting Station
Haze Haze  
Wind Chill: 66°   Ceiling: 8000
Heat Index: 66°   Visibility: 3mi
Dew Point: 64°   Wind: 3mph
Humidity: 94%   Direction: 50°NE
Pressure: 30.09"   Gusts: NA
Location:  16.1°S, 49.34°W
Report Text: SBAN 230200Z 05003KT 5000 BR SCT003 BKN080 19/18 Q1019
Loading
Personal Weather Stations






























Interactive Weather Map New forecast layout! Learn more

10-Day Weather Forecast

Advertisements
Track Severe Weather on mobile